Time;durP1;ratioP1;P1;durP2;ratioP2;P2;SDS_P1;SDS_P2;PMS_P1;PMS_P2;Temp;Humidity;BMP_temperature;BMP_pressure;BME280_temperature;BME280_humidity;BME280_pressure;Samples;Min_cycle;Max_cycle;Signal;HPM_P1;HPM_P2
2021/05/01 00:01:16;;;;;;;28.67;26.07;;;;;;;;;;5006779;28;20196;-44
2021/05/01 00:03:41;;;;;;;30.13;27.27;;;;;;;;;;5016918;28;20261;-45
2021/05/01 00:06:06;;;;;;;29.37;26.80;;;;;;;;;;5003837;28;20251;-45
2021/05/01 00:08:32;;;;;;;27.90;25.40;;;;;;;;;;5002606;28;20189;-44
2021/05/01 00:11:00;;;;;;;28.77;26.17;;;;;;;;;;5001904;28;20415;-45
2021/05/01 00:13:25;;;;;;;30.37;27.50;;;;;;;;;;5003983;28;20610;-44
2021/05/01 00:15:50;;;;;;;28.98;26.42;;;;;;;;;;4999742;28;20616;-44
2021/05/01 00:18:15;;;;;;;28.98;26.38;;;;;;;;;;5005912;28;20173;-44
2021/05/01 00:20:41;;;;;;;31.97;28.67;;;;;;;;;;5004908;28;20264;-44
2021/05/01 00:23:06;;;;;;;30.90;28.00;;;;;;;;;;5007861;28;20180;-44
2021/05/01 00:25:31;;;;;;;31.08;28.38;;;;;;;;;;5012750;28;20173;-44
2021/05/01 00:27:56;;;;;;;32.37;29.50;;;;;;;;;;4999956;28;20187;-43
2021/05/01 00:30:21;;;;;;;33.93;30.53;;;;;;;;;;5001804;28;20274;-44
2021/05/01 00:32:47;;;;;;;32.23;29.23;;;;;;;;;;5003994;28;20545;-43
2021/05/01 00:35:12;;;;;;;30.88;28.02;;;;;;;;;;5005262;28;20603;-44
2021/05/01 00:37:37;;;;;;;31.13;28.43;;;;;;;;;;5005508;28;20222;-44
2021/05/01 00:40:03;;;;;;;29.90;27.03;;;;;;;;;;5003206;28;20181;-44
2021/05/01 00:42:28;;;;;;;31.83;28.73;;;;;;;;;;5000360;28;20184;-44
2021/05/01 00:44:54;;;;;;;32.28;29.33;;;;;;;;;;4998653;28;20595;-44
2021/05/01 00:47:19;;;;;;;30.00;27.10;;;;;;;;;;5003828;28;20204;-44
2021/05/01 00:49:44;;;;;;;30.58;27.85;;;;;;;;;;5002706;28;20188;-49
2021/05/01 00:52:09;;;;;;;31.93;29.00;;;;;;;;;;5005299;28;20171;-44
2021/05/01 00:54:35;;;;;;;31.20;28.23;;;;;;;;;;5005026;28;20564;-44
2021/05/01 00:57:00;;;;;;;31.50;28.43;;;;;;;;;;4999445;28;20216;-44
2021/05/01 00:59:25;;;;;;;30.85;27.92;;;;;;;;;;4999611;28;20195;-44
2021/05/01 01:01:52;;;;;;;31.27;28.37;;;;;;;;;;5002872;28;20181;-43
2021/05/01 01:04:18;;;;;;;32.17;29.20;;;;;;;;;;5005290;28;20174;-43
2021/05/01 01:06:43;;;;;;;29.40;26.70;;;;;;;;;;5004656;28;21235;-43
2021/05/01 01:09:09;;;;;;;32.10;29.10;;;;;;;;;;5002020;28;20189;-43
2021/05/01 01:11:35;;;;;;;31.57;28.57;;;;;;;;;;5000654;28;20264;-43
2021/05/01 01:14:01;;;;;;;29.80;27.00;;;;;;;;;;5001085;28;20181;-45
2021/05/01 01:16:28;;;;;;;30.83;27.83;;;;;;;;;;5004880;28;20700;-43
2021/05/01 01:18:53;;;;;;;30.40;27.60;;;;;;;;;;5002214;28;20649;-44
2021/05/01 01:21:20;;;;;;;31.73;28.50;;;;;;;;;;5003102;28;21172;-44
2021/05/01 01:23:45;;;;;;;30.50;27.57;;;;;;;;;;5001155;28;20205;-43
2021/05/01 01:26:11;;;;;;;30.17;27.27;;;;;;;;;;5002182;28;20657;-44
2021/05/01 01:28:36;;;;;;;32.27;29.23;;;;;;;;;;5004322;28;20252;-43
2021/05/01 01:31:01;;;;;;;29.63;27.00;;;;;;;;;;5002830;28;20254;-44
2021/05/01 01:33:26;;;;;;;30.07;26.87;;;;;;;;;;4998404;28;20262;-44
2021/05/01 01:35:51;;;;;;;29.47;26.60;;;;;;;;;;4998798;28;20322;-44
2021/05/01 01:38:17;;;;;;;27.48;25.08;;;;;;;;;;5003230;28;20182;-44
2021/05/01 01:40:42;;;;;;;27.27;24.67;;;;;;;;;;5002195;28;20532;-44
2021/05/01 01:43:08;;;;;;;28.20;25.50;;;;;;;;;;5004216;28;20173;-44
2021/05/01 01:45:33;;;;;;;28.93;26.23;;;;;;;;;;4998000;28;20622;-43
2021/05/01 01:47:59;;;;;;;32.03;28.80;;;;;;;;;;5000901;28;20370;-43
2021/05/01 01:50:24;;;;;;;28.60;25.80;;;;;;;;;;5003731;28;20187;-43
2021/05/01 01:52:50;;;;;;;28.87;26.17;;;;;;;;;;5002603;28;20200;-44
2021/05/01 01:55:16;;;;;;;27.03;24.50;;;;;;;;;;5002040;28;20195;-43
2021/05/01 01:57:42;;;;;;;27.00;24.27;;;;;;;;;;4999231;28;20211;-45
2021/05/01 02:00:09;;;;;;;28.53;25.73;;;;;;;;;;5000184;28;20615;-44
2021/05/01 02:02:34;;;;;;;27.23;24.47;;;;;;;;;;4999005;28;20236;-43
2021/05/01 02:04:59;;;;;;;29.73;26.80;;;;;;;;;;4999681;28;20614;-44
2021/05/01 02:07:24;;;;;;;27.00;24.50;;;;;;;;;;5008749;28;20170;-44
2021/05/01 02:09:49;;;;;;;29.40;26.70;;;;;;;;;;5006143;28;20303;-44
2021/05/01 02:12:15;;;;;;;27.73;25.13;;;;;;;;;;5003952;28;20267;-44
2021/05/01 02:14:40;;;;;;;27.37;24.80;;;;;;;;;;5006415;28;20191;-44
2021/05/01 02:17:05;;;;;;;28.23;25.63;;;;;;;;;;5004760;28;20277;-43
2021/05/01 02:19:30;;;;;;;28.97;26.20;;;;;;;;;;5006041;28;20542;-44
2021/05/01 02:21:55;;;;;;;27.43;24.93;;;;;;;;;;5005769;28;20756;-44
2021/05/01 02:24:21;;;;;;;27.53;24.77;;;;;;;;;;5008005;28;20195;-48
2021/05/01 02:26:46;;;;;;;30.80;27.83;;;;;;;;;;5002384;28;20189;-44
2021/05/01 02:29:11;;;;;;;29.23;26.43;;;;;;;;;;5001805;28;20180;-44
2021/05/01 02:31:36;;;;;;;29.07;26.27;;;;;;;;;;5003859;28;20197;-44
2021/05/01 02:34:02;;;;;;;28.90;26.30;;;;;;;;;;5002003;28;20201;-44
2021/05/01 02:36:27;;;;;;;27.27;24.67;;;;;;;;;;5003935;28;20218;-44
2021/05/01 02:38:53;;;;;;;28.83;26.00;;;;;;;;;;5006946;28;20175;-44
2021/05/01 02:41:18;;;;;;;29.37;26.40;;;;;;;;;;5007821;28;20176;-43
2021/05/01 02:43:43;;;;;;;29.67;26.77;;;;;;;;;;5005139;28;20189;-44
2021/05/01 02:46:09;;;;;;;27.90;25.27;;;;;;;;;;5000577;28;20532;-44
2021/05/01 02:48:34;;;;;;;28.67;25.87;;;;;;;;;;5003970;28;20224;-43
2021/05/01 02:50:59;;;;;;;29.10;26.30;;;;;;;;;;5001375;28;20639;-44
2021/05/01 02:53:24;;;;;;;26.90;24.40;;;;;;;;;;5007613;28;20184;-44
2021/05/01 02:55:50;;;;;;;27.10;24.40;;;;;;;;;;5005019;28;20184;-44
2021/05/01 02:58:15;;;;;;;28.90;26.10;;;;;;;;;;5007262;28;20181;-43
2021/05/01 03:00:40;;;;;;;26.33;23.77;;;;;;;;;;5005323;28;20180;-43
2021/05/01 03:03:06;;;;;;;29.73;26.57;;;;;;;;;;5001913;28;20672;-44
2021/05/01 03:05:31;;;;;;;28.27;25.57;;;;;;;;;;5001665;28;20518;-43
2021/05/01 03:07:56;;;;;;;27.80;25.20;;;;;;;;;;5001536;28;20188;-43
2021/05/01 03:10:22;;;;;;;28.40;25.70;;;;;;;;;;5006726;28;20235;-43
2021/05/01 03:12:47;;;;;;;28.50;25.60;;;;;;;;;;4998589;28;20246;-44
2021/05/01 03:15:13;;;;;;;27.47;24.80;;;;;;;;;;4998202;28;20595;-44
2021/05/01 03:17:38;;;;;;;26.10;23.70;;;;;;;;;;5003665;28;20232;-44
2021/05/01 03:20:04;;;;;;;26.80;23.07;;;;;;;;;;5000978;28;20620;-44
2021/05/01 03:22:29;;;;;;;27.93;25.20;;;;;;;;;;5004594;28;20177;-44
2021/05/01 03:24:55;;;;;;;27.30;24.70;;;;;;;;;;5004248;28;20588;-44
2021/05/01 03:27:21;;;;;;;26.60;24.10;;;;;;;;;;5007135;28;20172;-44
2021/05/01 03:29:46;;;;;;;26.93;24.33;;;;;;;;;;5005005;28;20180;-45
2021/05/01 03:32:11;;;;;;;25.90;23.33;;;;;;;;;;5000652;28;20915;-43
2021/05/01 03:34:36;;;;;;;27.03;24.50;;;;;;;;;;5002125;28;20188;-44
2021/05/01 03:37:02;;;;;;;26.98;24.38;;;;;;;;;;5001204;28;21033;-44
2021/05/01 03:39:27;;;;;;;25.93;23.53;;;;;;;;;;5006454;28;20312;-44
2021/05/01 03:41:52;;;;;;;25.63;23.10;;;;;;;;;;5004266;28;20646;-44
2021/05/01 03:44:17;;;;;;;25.00;22.60;;;;;;;;;;5006266;28;20668;-45
2021/05/01 03:46:42;;;;;;;24.70;22.40;;;;;;;;;;5003027;28;20838;-44
2021/05/01 03:49:07;;;;;;;25.43;22.93;;;;;;;;;;5000261;28;20631;-44
2021/05/01 03:51:33;;;;;;;26.53;23.80;;;;;;;;;;5004796;28;20235;-44
2021/05/01 03:53:58;;;;;;;25.60;23.30;;;;;;;;;;5003604;28;20207;-44
2021/05/01 03:56:23;;;;;;;24.80;22.60;;;;;;;;;;5006046;28;20591;-45
2021/05/01 03:58:49;;;;;;;25.83;23.42;;;;;;;;;;5004497;28;20180;-44
2021/05/01 04:01:14;;;;;;;26.30;23.87;;;;;;;;;;5000535;28;20181;-44
2021/05/01 04:03:39;;;;;;;25.20;22.75;;;;;;;;;;5002333;28;20680;-44
2021/05/01 04:06:05;;;;;;;25.25;22.63;;;;;;;;;;5002205;28;20199;-44
2021/05/01 04:08:30;;;;;;;27.53;24.83;;;;;;;;;;5002287;28;20667;-44
2021/05/01 04:10:55;;;;;;;25.93;23.43;;;;;;;;;;5003085;28;20199;-45
2021/05/01 04:13:20;;;;;;;26.23;23.67;;;;;;;;;;5006130;28;20215;-44
2021/05/01 04:15:46;;;;;;;25.10;22.75;;;;;;;;;;5001860;28;20191;-45
2021/05/01 04:18:14;;;;;;;27.50;24.90;;;;;;;;;;5000402;28;20207;-44
2021/05/01 04:20:40;;;;;;;26.97;24.27;;;;;;;;;;5004968;28;20183;-44
2021/05/01 04:23:06;;;;;;;24.70;22.50;;;;;;;;;;5005743;28;20598;-44
2021/05/01 04:25:31;;;;;;;24.03;21.73;;;;;;;;;;5003458;28;21077;-44
2021/05/01 04:27:56;;;;;;;25.00;22.55;;;;;;;;;;4999723;28;20881;-44
2021/05/01 04:30:21;;;;;;;24.43;22.10;;;;;;;;;;5000012;28;20180;-45
2021/05/01 04:32:47;;;;;;;23.67;21.40;;;;;;;;;;5001734;28;20180;-45
2021/05/01 04:35:13;;;;;;;24.67;22.27;;;;;;;;;;5005022;28;20199;-45
2021/05/01 04:37:38;;;;;;;23.60;21.30;;;;;;;;;;5005742;28;21184;-45
2021/05/01 04:40:04;;;;;;;24.30;22.00;;;;;;;;;;5003172;28;20183;-44
2021/05/01 04:42:29;;;;;;;24.30;22.00;;;;;;;;;;5001241;28;20201;-45
2021/05/01 04:44:54;;;;;;;24.03;21.60;;;;;;;;;;5004563;28;20638;-44
2021/05/01 04:47:19;;;;;;;24.23;21.83;;;;;;;;;;5005482;28;20185;-43
2021/05/01 04:49:44;;;;;;;23.53;21.33;;;;;;;;;;5003269;28;20177;-43
2021/05/01 04:52:10;;;;;;;23.93;21.73;;;;;;;;;;4999097;28;20180;-44
2021/05/01 04:54:35;;;;;;;22.83;20.73;;;;;;;;;;5000836;28;20191;-44
2021/05/01 04:57:00;;;;;;;23.10;20.97;;;;;;;;;;4999368;28;20278;-44
2021/05/01 04:59:25;;;;;;;23.43;21.27;;;;;;;;;;4996502;28;20172;-44
2021/05/01 05:01:50;;;;;;;23.57;21.37;;;;;;;;;;4995030;28;20195;-43
2021/05/01 05:04:15;;;;;;;23.00;20.80;;;;;;;;;;5004286;28;20260;-43
2021/05/01 05:06:41;;;;;;;20.67;18.63;;;;;;;;;;5004377;28;20215;-44
2021/05/01 05:09:06;;;;;;;22.87;20.57;;;;;;;;;;5007861;28;20569;-45
2021/05/01 05:11:32;;;;;;;23.43;21.13;;;;;;;;;;5007902;28;20238;-44
2021/05/01 05:13:57;;;;;;;23.03;20.93;;;;;;;;;;5006051;28;20177;-43
2021/05/01 05:16:22;;;;;;;21.63;19.25;;;;;;;;;;5002994;28;20679;-43
2021/05/01 05:18:47;;;;;;;23.30;21.10;;;;;;;;;;4995562;28;20214;-43
2021/05/01 05:21:12;;;;;;;21.25;19.08;;;;;;;;;;4996385;28;20784;-44
2021/05/01 05:23:37;;;;;;;21.90;19.77;;;;;;;;;;5005615;28;20187;-43
2021/05/01 05:26:03;;;;;;;21.27;19.38;;;;;;;;;;4997825;28;20228;-44
2021/05/01 05:28:28;;;;;;;23.83;21.58;;;;;;;;;;5004630;28;20199;-43
2021/05/01 05:30:53;;;;;;;21.87;19.77;;;;;;;;;;5003477;28;20181;-44
2021/05/01 05:33:18;;;;;;;22.27;20.03;;;;;;;;;;5004799;28;20208;-43
2021/05/01 05:35:43;;;;;;;22.60;20.37;;;;;;;;;;5002202;28;20230;-44
2021/05/01 05:38:08;;;;;;;23.70;21.53;;;;;;;;;;5005443;28;20205;-44
2021/05/01 05:40:34;;;;;;;20.55;18.38;;;;;;;;;;5003460;28;20662;-44
2021/05/01 05:43:00;;;;;;;23.33;21.07;;;;;;;;;;5004885;28;20185;-44
2021/05/01 05:45:31;;;;;;;22.77;20.67;;;;;;;;;;5005713;28;20176;-44
2021/05/01 05:47:56;;;;;;;20.67;18.73;;;;;;;;;;4994374;28;20176;-43
2021/05/01 05:50:22;;;;;;;22.97;20.87;;;;;;;;;;5003661;28;20614;-43
2021/05/01 05:52:47;;;;;;;22.90;20.60;;;;;;;;;;4996547;28;20243;-44
2021/05/01 05:55:12;;;;;;;21.00;19.13;;;;;;;;;;4999624;28;20214;-44
2021/05/01 05:57:38;;;;;;;21.33;19.43;;;;;;;;;;4999265;28;20205;-43
2021/05/01 06:00:04;;;;;;;22.50;20.50;;;;;;;;;;4998174;28;20184;-44
2021/05/01 06:02:30;;;;;;;21.50;19.47;;;;;;;;;;4998922;28;20621;-44
2021/05/01 06:05:00;;;;;;;22.57;19.97;;;;;;;;;;4995198;28;20608;-43
2021/05/01 06:07:32;;;;;;;21.27;19.33;;;;;;;;;;4993121;28;20263;-44
2021/05/01 06:09:58;;;;;;;21.67;19.57;;;;;;;;;;4990494;28;20694;-44
2021/05/01 06:12:24;;;;;;;20.90;19.00;;;;;;;;;;4993121;28;21307;-44
2021/05/01 06:14:50;;;;;;;20.53;18.63;;;;;;;;;;4992794;28;20612;-44
2021/05/01 06:17:20;;;;;;;21.10;19.20;;;;;;;;;;4997746;28;20239;-51
2021/05/01 06:19:45;;;;;;;20.53;18.60;;;;;;;;;;4990164;28;20605;-44
2021/05/01 06:22:11;;;;;;;23.17;20.77;;;;;;;;;;4986646;28;20662;-45
2021/05/01 06:24:38;;;;;;;19.20;17.50;;;;;;;;;;4995783;28;20173;-44
2021/05/01 06:27:03;;;;;;;21.17;19.17;;;;;;;;;;4996710;28;20180;-44
2021/05/01 06:29:29;;;;;;;20.67;18.70;;;;;;;;;;4985386;28;20604;-45
2021/05/01 06:31:55;;;;;;;20.83;18.97;;;;;;;;;;4991691;28;20186;-45
2021/05/01 06:34:20;;;;;;;20.50;18.60;;;;;;;;;;4991128;28;20613;-45
2021/05/01 06:36:45;;;;;;;20.20;18.40;;;;;;;;;;4989765;28;20225;-45
2021/05/01 06:39:12;;;;;;;21.40;19.20;;;;;;;;;;4993283;28;20185;-45
2021/05/01 06:41:48;;;;;;;20.67;18.67;;;;;;;;;;4989246;28;20189;-45
2021/05/01 06:44:18;;;;;;;19.50;17.90;;;;;;;;;;4991615;28;20949;-44
2021/05/01 06:46:45;;;;;;;19.33;17.57;;;;;;;;;;4995546;28;21182;-44
2021/05/01 06:49:12;;;;;;;19.50;17.70;;;;;;;;;;4993735;28;20609;-44
2021/05/01 06:51:39;;;;;;;18.60;16.80;;;;;;;;;;5003819;28;20673;-44
2021/05/01 06:54:06;;;;;;;18.77;17.03;;;;;;;;;;5010200;28;20739;-43
2021/05/01 06:56:32;;;;;;;17.80;16.10;;;;;;;;;;5007722;28;20812;-44
2021/05/01 06:59:07;;;;;;;18.30;16.70;;;;;;;;;;5009097;28;21416;-44
2021/05/01 07:01:33;;;;;;;17.37;15.77;;;;;;;;;;5002494;28;20584;-45
2021/05/01 07:03:58;;;;;;;17.80;16.20;;;;;;;;;;5008096;28;20683;-44
2021/05/01 07:06:24;;;;;;;17.60;16.10;;;;;;;;;;5009548;28;20194;-44
2021/05/01 07:08:49;;;;;;;16.90;15.30;;;;;;;;;;5009110;28;20191;-45
2021/05/01 07:11:14;;;;;;;16.63;14.93;;;;;;;;;;5009925;28;20241;-44
2021/05/01 07:13:40;;;;;;;16.20;14.70;;;;;;;;;;5004035;28;20196;-44
2021/05/01 07:16:10;;;;;;;14.53;13.23;;;;;;;;;;5009710;28;20188;-45
2021/05/01 07:18:37;;;;;;;13.10;12.07;;;;;;;;;;5002440;28;20186;-44
2021/05/01 07:21:02;;;;;;;13.43;12.33;;;;;;;;;;5004047;28;21162;-44
2021/05/01 07:23:27;;;;;;;13.40;12.20;;;;;;;;;;5005681;28;20598;-45
2021/05/01 07:25:53;;;;;;;14.60;13.40;;;;;;;;;;5000524;28;20188;-45
2021/05/01 07:28:25;;;;;;;14.43;13.23;;;;;;;;;;5009802;28;20179;-45
2021/05/01 07:30:55;;;;;;;14.73;13.40;;;;;;;;;;5007664;28;20194;-45
2021/05/01 07:33:24;;;;;;;14.20;13.00;;;;;;;;;;5009940;28;20684;-45
2021/05/01 07:35:50;;;;;;;14.57;13.30;;;;;;;;;;5004725;28;20732;-45
2021/05/01 07:38:15;;;;;;;14.47;13.27;;;;;;;;;;5000498;28;20643;-44
2021/05/01 07:40:41;;;;;;;13.37;12.17;;;;;;;;;;5003805;28;20609;-45
2021/05/01 07:43:07;;;;;;;14.90;13.60;;;;;;;;;;4999057;28;20278;-47
2021/05/01 07:45:53;;;;;;;14.50;13.30;;;;;;;;;;4998404;28;20213;-43
2021/05/01 07:48:19;;;;;;;13.20;12.10;;;;;;;;;;5010546;28;20670;-45
2021/05/01 07:50:46;;;;;;;11.73;10.80;;;;;;;;;;5003438;28;20643;-45
2021/05/01 07:53:11;;;;;;;11.53;10.63;;;;;;;;;;5005465;28;20673;-45
2021/05/01 07:55:37;;;;;;;11.70;10.83;;;;;;;;;;4995306;28;21170;-45
2021/05/01 07:58:03;;;;;;;12.97;11.87;;;;;;;;;;4992576;28;20298;-45
2021/05/01 08:00:28;;;;;;;14.70;13.50;;;;;;;;;;5003284;28;20607;-44
2021/05/01 08:02:53;;;;;;;14.10;12.93;;;;;;;;;;5003231;28;20227;-45
2021/05/01 08:05:19;;;;;;;12.60;11.57;;;;;;;;;;5003239;28;20522;-44
2021/05/01 08:07:44;;;;;;;11.90;10.87;;;;;;;;;;5000632;28;20277;-45
2021/05/01 08:10:10;;;;;;;11.40;10.40;;;;;;;;;;5005729;28;20591;-45
2021/05/01 08:12:35;;;;;;;11.30;10.40;;;;;;;;;;5005141;28;20248;-44
2021/05/01 08:15:00;;;;;;;10.90;10.00;;;;;;;;;;5003220;28;20608;-45
2021/05/01 08:17:25;;;;;;;12.10;11.20;;;;;;;;;;5000348;28;20256;-45
2021/05/01 08:19:51;;;;;;;11.03;10.17;;;;;;;;;;5000046;28;20180;-46
2021/05/01 08:22:17;;;;;;;11.20;10.30;;;;;;;;;;5003670;28;20631;-45
2021/05/01 08:24:42;;;;;;;12.45;11.45;;;;;;;;;;5004064;28;21268;-45
2021/05/01 08:27:07;;;;;;;12.27;11.25;;;;;;;;;;5001444;28;20267;-44
2021/05/01 08:29:32;;;;;;;11.45;10.48;;;;;;;;;;5000800;28;20179;-44
2021/05/01 08:31:57;;;;;;;11.37;10.47;;;;;;;;;;5001683;28;20184;-46
2021/05/01 08:34:22;;;;;;;11.97;10.97;;;;;;;;;;5003519;28;20189;-45
2021/05/01 08:36:48;;;;;;;12.40;11.25;;;;;;;;;;5003269;28;20224;-45
2021/05/01 08:39:13;;;;;;;11.30;10.35;;;;;;;;;;5005325;28;20278;-44
2021/05/01 08:41:38;;;;;;;11.67;10.77;;;;;;;;;;5002751;28;20561;-44
2021/05/01 08:44:08;;;;;;;12.43;11.53;;;;;;;;;;4999749;28;20182;-45
2021/05/01 08:46:33;;;;;;;12.60;11.60;;;;;;;;;;4998954;28;20934;-45
2021/05/01 08:48:58;;;;;;;10.90;9.90;;;;;;;;;;4999947;28;20619;-44
2021/05/01 08:51:24;;;;;;;11.87;10.87;;;;;;;;;;5001478;28;20209;-44
2021/05/01 08:53:49;;;;;;;11.80;10.90;;;;;;;;;;5003249;28;20556;-45
2021/05/01 08:56:14;;;;;;;10.70;9.90;;;;;;;;;;5004682;28;20376;-45
2021/05/01 08:58:40;;;;;;;11.18;10.27;;;;;;;;;;5004474;28;20181;-45
2021/05/01 09:01:07;;;;;;;12.15;11.15;;;;;;;;;;5001231;28;20189;-45
2021/05/01 09:03:34;;;;;;;11.20;10.40;;;;;;;;;;4999451;28;20175;-45
2021/05/01 09:06:00;;;;;;;10.50;9.63;;;;;;;;;;4999066;28;20590;-45
2021/05/01 09:08:26;;;;;;;10.70;9.90;;;;;;;;;;5005235;28;20652;-45
2021/05/01 09:10:52;;;;;;;11.00;10.20;;;;;;;;;;5002117;28;20223;-45
2021/05/01 09:13:25;;;;;;;10.23;9.50;;;;;;;;;;5000727;28;20638;-46
2021/05/01 09:16:03;;;;;;;11.40;10.50;;;;;;;;;;4998890;28;20219;-45
2021/05/01 09:18:41;;;;;;;11.10;10.20;;;;;;;;;;4999033;28;21182;-45
2021/05/01 09:21:26;;;;;;;9.90;9.10;;;;;;;;;;5004574;28;20661;-45
2021/05/01 09:23:52;;;;;;;12.27;11.27;;;;;;;;;;5002991;28;21035;-44
2021/05/01 09:26:22;;;;;;;11.43;10.50;;;;;;;;;;5002661;28;20673;-45
2021/05/01 09:28:50;;;;;;;10.80;10.00;;;;;;;;;;5000217;28;20570;-45
2021/05/01 09:31:16;;;;;;;10.40;9.60;;;;;;;;;;4999207;28;20655;-46
2021/05/01 09:33:48;;;;;;;10.33;9.60;;;;;;;;;;5002115;28;21217;-45
2021/05/01 09:36:13;;;;;;;11.27;10.47;;;;;;;;;;5004190;28;20589;-45
2021/05/01 09:38:51;;;;;;;10.70;9.80;;;;;;;;;;5004638;28;20596;-45
2021/05/01 09:41:22;;;;;;;11.00;10.20;;;;;;;;;;4998229;28;20708;-45
2021/05/01 09:43:57;;;;;;;9.73;9.00;;;;;;;;;;5000882;28;20588;-46
2021/05/01 09:46:22;;;;;;;8.97;8.27;;;;;;;;;;5000468;28;20963;-44
2021/05/01 09:49:03;;;;;;;8.90;8.20;;;;;;;;;;5001935;28;20597;-45
2021/05/01 09:51:33;;;;;;;10.30;9.50;;;;;;;;;;5003805;28;20877;-44
2021/05/01 09:53:59;;;;;;;10.40;9.60;;;;;;;;;;4998789;28;20565;-44
2021/05/01 09:56:24;;;;;;;10.77;9.97;;;;;;;;;;4998953;28;20676;-44
2021/05/01 09:58:52;;;;;;;11.60;10.77;;;;;;;;;;5003705;28;20624;-46
2021/05/01 10:01:18;;;;;;;11.07;10.27;;;;;;;;;;5002339;28;20171;-45
2021/05/01 10:03:43;;;;;;;11.20;10.30;;;;;;;;;;5001595;28;21003;-44
2021/05/01 10:06:10;;;;;;;12.17;11.27;;;;;;;;;;5001175;28;20177;-45
2021/05/01 10:08:36;;;;;;;10.60;9.80;;;;;;;;;;5000462;28;20170;-44
2021/05/01 10:11:11;;;;;;;10.88;10.07;;;;;;;;;;4998383;28;20926;-44
2021/05/01 10:13:47;;;;;;;10.77;9.87;;;;;;;;;;5002324;28;20301;-44
2021/05/01 10:16:12;;;;;;;9.60;9.00;;;;;;;;;;5003928;28;20589;-45
2021/05/01 10:18:37;;;;;;;11.40;10.40;;;;;;;;;;5004129;28;20597;-45
2021/05/01 10:21:02;;;;;;;11.70;10.90;;;;;;;;;;5002082;28;20701;-44
2021/05/01 10:23:27;;;;;;;13.60;12.60;;;;;;;;;;4998416;28;20557;-45
2021/05/01 10:25:52;;;;;;;13.40;12.30;;;;;;;;;;4999847;28;20175;-45
2021/05/01 10:28:19;;;;;;;13.70;12.70;;;;;;;;;;5005971;28;20186;-46
2021/05/01 10:30:49;;;;;;;12.67;11.67;;;;;;;;;;5005773;28;20186;-45
2021/05/01 10:33:24;;;;;;;13.00;12.10;;;;;;;;;;5005785;28;20583;-45
2021/05/01 10:35:49;;;;;;;12.27;11.37;;;;;;;;;;5001680;28;20592;-45
2021/05/01 10:38:16;;;;;;;11.50;10.65;;;;;;;;;;5002852;28;20695;-45
2021/05/01 10:40:46;;;;;;;12.63;11.73;;;;;;;;;;5003389;28;20850;-45
2021/05/01 10:43:13;;;;;;;12.17;11.27;;;;;;;;;;5007675;28;20663;-45
2021/05/01 10:45:38;;;;;;;14.30;13.20;;;;;;;;;;5007543;28;21259;-44
2021/05/01 10:48:07;;;;;;;11.47;10.57;;;;;;;;;;5002213;28;21251;-45
2021/05/01 10:50:33;;;;;;;12.27;11.30;;;;;;;;;;5002942;28;20182;-45
2021/05/01 10:52:58;;;;;;;12.30;11.30;;;;;;;;;;5001943;28;20573;-45
2021/05/01 10:55:24;;;;;;;13.10;12.10;;;;;;;;;;5002010;28;20176;-45
2021/05/01 10:57:58;;;;;;;11.90;11.10;;;;;;;;;;5005457;28;20207;-46
2021/05/01 11:00:23;;;;;;;13.07;12.07;;;;;;;;;;5005239;28;20590;-44
2021/05/01 11:02:57;;;;;;;13.07;12.07;;;;;;;;;;5005416;28;20601;-45
2021/05/01 11:05:22;;;;;;;13.80;12.70;;;;;;;;;;5001263;28;20661;-45
2021/05/01 11:07:56;;;;;;;12.80;11.80;;;;;;;;;;5003384;28;20582;-44
2021/05/01 11:10:22;;;;;;;13.97;12.87;;;;;;;;;;5001186;28;20195;-44
2021/05/01 11:12:52;;;;;;;13.30;12.30;;;;;;;;;;5006169;28;20655;-44
2021/05/01 11:15:19;;;;;;;12.80;11.97;;;;;;;;;;5006792;28;20610;-45
2021/05/01 11:17:47;;;;;;;12.07;11.17;;;;;;;;;;5003430;28;20744;-46
2021/05/01 11:20:13;;;;;;;12.37;11.47;;;;;;;;;;5000602;28;20607;-45
2021/05/01 11:22:42;;;;;;;12.57;11.57;;;;;;;;;;5002677;28;20609;-45
2021/05/01 11:25:12;;;;;;;14.10;13.03;;;;;;;;;;5005023;28;20898;-46
2021/05/01 11:27:38;;;;;;;13.37;12.40;;;;;;;;;;5006906;28;20646;-45
2021/05/01 11:30:04;;;;;;;13.10;12.10;;;;;;;;;;5004528;28;20606;-45
2021/05/01 11:32:29;;;;;;;14.80;13.70;;;;;;;;;;5001565;28;20205;-45
2021/05/01 11:34:59;;;;;;;13.30;12.30;;;;;;;;;;5000516;28;20631;-45
2021/05/01 11:37:26;;;;;;;14.47;13.37;;;;;;;;;;4999663;28;20270;-44
2021/05/01 11:39:51;;;;;;;12.73;11.80;;;;;;;;;;5002292;28;20591;-46
2021/05/01 11:42:21;;;;;;;13.97;12.87;;;;;;;;;;5002422;28;20666;-46
2021/05/01 11:44:47;;;;;;;14.63;13.50;;;;;;;;;;5005596;28;20173;-46
2021/05/01 11:47:14;;;;;;;15.00;13.80;;;;;;;;;;5006140;28;20642;-46
2021/05/01 11:49:39;;;;;;;13.10;12.10;;;;;;;;;;5005542;28;20637;-46
2021/05/01 11:52:04;;;;;;;14.13;12.97;;;;;;;;;;5001427;28;20614;-47
2021/05/01 11:54:41;;;;;;;14.48;13.40;;;;;;;;;;5002224;28;20188;-45
2021/05/01 11:57:19;;;;;;;14.30;13.20;;;;;;;;;;5000575;28;20219;-45
2021/05/01 11:59:45;;;;;;;14.17;13.07;;;;;;;;;;5001990;28;20603;-45
2021/05/01 12:02:11;;;;;;;12.50;11.70;;;;;;;;;;5005617;28;21510;-45
2021/05/01 12:04:45;;;;;;;14.20;13.10;;;;;;;;;;5003942;28;20603;-45
2021/05/01 12:07:17;;;;;;;12.70;11.70;;;;;;;;;;5000987;28;20588;-45
2021/05/01 12:09:44;;;;;;;15.07;13.97;;;;;;;;;;5002332;28;20570;-45
2021/05/01 12:12:10;;;;;;;16.00;14.77;;;;;;;;;;5003477;28;21066;-45
2021/05/01 12:14:35;;;;;;;15.60;14.40;;;;;;;;;;5005055;28;20603;-46
2021/05/01 12:17:10;;;;;;;14.43;13.40;;;;;;;;;;5004061;28;20729;-44
2021/05/01 12:19:39;;;;;;;15.50;14.33;;;;;;;;;;5003405;28;20270;-45
2021/05/01 12:22:21;;;;;;;15.27;14.07;;;;;;;;;;5000116;28;20650;-45
2021/05/01 12:24:46;;;;;;;14.80;13.70;;;;;;;;;;4998531;28;20645;-45
2021/05/01 12:27:31;;;;;;;13.80;12.75;;;;;;;;;;5001802;28;20583;-46
2021/05/01 12:29:56;;;;;;;14.43;13.30;;;;;;;;;;5001662;28;20283;-44
2021/05/01 12:32:24;;;;;;;13.80;12.80;;;;;;;;;;5005805;28;20636;-45
2021/05/01 12:34:50;;;;;;;13.30;12.30;;;;;;;;;;5003214;28;20323;-45
2021/05/01 12:37:15;;;;;;;14.90;13.80;;;;;;;;;;5002117;28;20786;-46
2021/05/01 12:39:41;;;;;;;14.87;13.70;;;;;;;;;;5001588;28;20178;-45
2021/05/01 12:42:20;;;;;;;16.00;14.80;;;;;;;;;;5001557;28;20589;-45
2021/05/01 12:44:47;;;;;;;15.30;14.10;;;;;;;;;;5001155;28;20606;-45
2021/05/01 12:47:32;;;;;;;13.90;12.90;;;;;;;;;;5005057;28;20605;-45
2021/05/01 12:50:19;;;;;;;13.90;12.90;;;;;;;;;;5002350;28;20649;-45
2021/05/01 12:52:45;;;;;;;13.83;12.73;;;;;;;;;;4999354;28;20952;-45
2021/05/01 12:55:10;;;;;;;14.90;13.80;;;;;;;;;;5000616;28;20617;-45
2021/05/01 12:57:37;;;;;;;15.00;13.80;;;;;;;;;;4999742;28;20213;-44
2021/05/01 13:00:20;;;;;;;15.90;14.70;;;;;;;;;;5004818;28;20204;-45
2021/05/01 13:03:14;;;;;;;16.87;15.57;;;;;;;;;;5001853;28;21211;-45
2021/05/01 13:05:46;;;;;;;13.80;12.80;;;;;;;;;;4993112;28;20998;-45
2021/05/01 13:08:20;;;;;;;13.03;12.00;;;;;;;;;;4995231;28;20612;-45
2021/05/01 13:10:46;;;;;;;14.00;13.00;;;;;;;;;;5000175;28;20732;-46
2021/05/01 13:13:12;;;;;;;14.40;13.40;;;;;;;;;;4995333;28;20680;-45
2021/05/01 13:15:55;;;;;;;14.03;13.03;;;;;;;;;;5004209;28;20611;-45
2021/05/01 13:18:20;;;;;;;13.50;12.50;;;;;;;;;;5005401;28;20210;-46
2021/05/01 13:21:02;;;;;;;13.60;12.60;;;;;;;;;;5008321;28;20582;-46
2021/05/01 13:23:35;;;;;;;12.80;11.90;;;;;;;;;;5007376;28;20187;-44
2021/05/01 13:26:00;;;;;;;14.80;13.70;;;;;;;;;;5003884;28;20689;-45
2021/05/01 13:28:25;;;;;;;13.80;12.70;;;;;;;;;;4997806;28;21546;-45
2021/05/01 13:30:50;;;;;;;14.27;13.10;;;;;;;;;;4986765;28;20183;-45
2021/05/01 13:33:15;;;;;;;13.55;12.65;;;;;;;;;;5002911;28;20184;-45
2021/05/01 13:35:41;;;;;;;13.00;12.00;;;;;;;;;;5006358;28;20195;-46
2021/05/01 13:38:06;;;;;;;12.03;11.13;;;;;;;;;;5007734;28;20818;-45
2021/05/01 13:40:33;;;;;;;12.87;11.90;;;;;;;;;;4996699;28;20199;-45
2021/05/01 13:43:08;;;;;;;11.43;10.63;;;;;;;;;;5008560;28;20165;-44
2021/05/01 13:45:37;;;;;;;13.27;12.27;;;;;;;;;;5008315;28;20566;-45
2021/05/01 13:48:03;;;;;;;13.87;12.90;;;;;;;;;;5005029;28;20593;-45
2021/05/01 13:50:29;;;;;;;13.23;12.23;;;;;;;;;;5000373;28;20617;-43
2021/05/01 13:53:00;;;;;;;14.90;13.80;;;;;;;;;;4996817;28;20179;-45
2021/05/01 13:55:27;;;;;;;14.07;12.97;;;;;;;;;;4999384;28;21191;-46
2021/05/01 13:57:52;;;;;;;15.00;13.90;;;;;;;;;;4996813;28;21123;-46
2021/05/01 14:00:18;;;;;;;15.60;14.32;;;;;;;;;;4997853;28;21118;-46
2021/05/01 14:02:45;;;;;;;15.43;14.33;;;;;;;;;;4988830;28;20549;-45
2021/05/01 14:05:11;;;;;;;16.87;15.67;;;;;;;;;;5005052;28;20657;-44
2021/05/01 14:07:37;;;;;;;16.50;15.20;;;;;;;;;;5000680;28;20605;-44
2021/05/01 14:10:03;;;;;;;14.73;13.63;;;;;;;;;;4997357;28;20731;-43
2021/05/01 14:12:29;;;;;;;14.97;13.87;;;;;;;;;;4995241;28;20222;-44
2021/05/01 14:14:55;;;;;;;15.50;14.23;;;;;;;;;;5000433;28;20615;-44
2021/05/01 14:17:23;;;;;;;17.17;15.97;;;;;;;;;;5007875;28;20248;-44